Flight Track Log - Related Links

Times and Time Zones

All times are in EDT time to prevent confusion due to time zone crossing. See the SWA494 flight status page for this flight to view local times or setup timezone preferences in your user account.


Time Position Orientation Groundspeed Altitude Reporting Facility
EDT Latitude Longitude Course Direction KTS MPH feet Rate Location/Type
Mon 01:29:44 PM 37.4000 -121.9667 321° Northwest 162 186 2,200  Level Northern Cal TRACON
Mon 01:31:26 PM 37.4017 -121.9053 88° East 243 280 5,000 1,693 Climbing Oakland Center
Mon 01:32:27 PM 37.3475 -121.8481 140° Southeast 255 293 6,800 2,213 Climbing Oakland Center
Mon 01:33:28 PM 37.2883 -121.8022 148° Southeast 276 318 9,500 2,311 Climbing Oakland Center
Mon 01:34:29 PM 37.2514 -121.8811 240° Southwest 271 312 11,500 2,049 Climbing Oakland Center
Mon 01:35:31 PM 37.3178 -121.9139 339° North 267 307 13,700 2,439 Climbing Oakland Center
Mon 01:36:32 PM 37.3928 -121.9481 340° North 285 328 16,500 2,557 Climbing Oakland Center
Mon 01:37:33 PM 37.4767 -121.9528 357° North 299 344 18,900 1,279 Climbing Oakland Center
Mon 01:38:34 PM 37.5583 -121.9200 18° North 325 374 19,100 1,024 Climbing Oakland Center
Mon 01:39:36 PM 37.6350 -121.8422 39° Northeast 351 404 21,000 1,512 Climbing Oakland Center
Mon 01:40:37 PM 37.7281 -121.7478 39° Northeast 357 411 22,200 1,574 Climbing Oakland Center
Mon 01:41:38 PM 37.8067 -121.6697 38° Northeast 361 415 24,200 2,262 Climbing Oakland Center
Mon 01:42:39 PM 37.8881 -121.5875 39° Northeast 372 428 26,800 2,656 Climbing Oakland Center
Mon 01:43:40 PM 37.9653 -121.5106 38° Northeast 359 413 29,600 2,537 Climbing Oakland Center
Mon 01:44:42 PM 38.0325 -121.4414 39° Northeast 332 382 32,000 1,415 Climbing Oakland Center
Mon 01:45:43 PM 38.1056 -121.3692 38° Northeast 333 383 32,500 590 Climbing Oakland Center
Mon 01:46:44 PM 38.1825 -121.2906 39° Northeast 352 405 33,200 984 Climbing Oakland Center
Mon 01:47:45 PM 38.2786 -121.1922 39° Northeast 370 426 34,500 885 Climbing Oakland Center
Mon 01:48:46 PM 38.3608 -121.1086 39° Northeast 381 438 35,000 390 Climbing Oakland Center
Mon 01:49:48 PM 38.4475 -121.0167 40° Northeast 410 472 35,300 439 Climbing Oakland Center
Mon 01:50:49 PM 38.5156 -120.8803 57° Northeast 457 526 35,900 689 Climbing Oakland Center
Mon 01:51:50 PM 38.5850 -120.7394 58° Northeast 468 539 36,700 541 Climbing Oakland Center
Mon 01:52:51 PM 38.6539 -120.6006 58° Northeast 465 535 37,000 146 Climbing Oakland Center
Mon 01:53:53 PM 38.7222 -120.4631 57° Northeast 460 529 37,000  Level Oakland Center
Mon 01:54:54 PM 38.8039 -120.2989 57° Northeast 456 525 37,000  Level Oakland Center
Mon 01:55:55 PM 38.8750 -120.1656 56° Northeast 453 521 37,000  Level Oakland Center
Mon 01:56:56 PM 38.9600 -120.0581 45° Northeast 434 499 37,000  Level Oakland Center
Mon 01:57:57 PM 39.0347 -119.9636 44° Northeast 435 501 37,000  Level Oakland Center
Mon 01:58:58 PM 39.1386 -119.8311 45° Northeast 436 502 37,000  Level Oakland Center
Mon 02:00:00 PM 39.2258 -119.7231 44° Northeast 434 499 37,000  Level Oakland Center
Mon 02:01:01 PM 39.3081 -119.6100 47° Northeast 433 498 37,000  Level Oakland Center
Mon 02:02:02 PM 39.3900 -119.4947 47° Northeast 434 499 37,000  Level Oakland Center
Mon 02:03:03 PM 39.4711 -119.3803 47° Northeast 431 496 37,000  Level Oakland Center
Mon 02:04:05 PM 39.5539 -119.2636 47° Northeast 435 501 37,000  Level Oakland Center
Mon 02:05:06 PM 39.6386 -119.1458 47° Northeast 441 507 37,000  Level Oakland Center
Mon 02:06:07 PM 39.7225 -119.0281 47° Northeast 441 507 37,000  Level Oakland Center
Mon 02:07:08 PM 39.8061 -118.9078 48° Northeast 443 510 37,000  Level Oakland Center
Mon 02:08:10 PM 39.8867 -118.7861 49° Northeast 442 509 37,000  Level Oakland Center
Mon 02:09:11 PM 39.9369 -118.6308 67° East 456 525 37,000  Level Oakland Center
Mon 02:10:12 PM 39.9878 -118.4761 67° East 461 531 37,000  Level Oakland Center
Mon 02:11:13 PM 40.0369 -118.3219 67° East 459 528 37,000  Level Oakland Center
Mon 02:12:15 PM 40.0869 -118.1661 67° East 463 533 37,000  Level Oakland Center
Mon 02:13:16 PM 40.1461 -117.9800 67° East 462 532 37,000  Level Oakland Center
Mon 02:14:17 PM 40.1950 -117.8239 68° East 463 533 37,000  Level Oakland Center
Mon 02:14:57 PM 40.2231 -117.7344 68° East 464 534 37,000  Level Salt Lake Center
Mon 02:15:59 PM 40.2678 -117.5839 69° East 463 533 37,000  Level Salt Lake Center
Mon 02:17:01 PM 40.3025 -117.3986 76° East 469 540 37,000  Level Salt Lake Center
Mon 02:18:03 PM 40.3344 -117.2372 75° East 476 548 37,000  Level Salt Lake Center
Mon 02:19:05 PM 40.3700 -117.0497 76° East 476 548 37,000  Level Salt Lake Center
Mon 02:20:08 PM 40.4028 -116.8706 76° East 475 547 37,000  Level Salt Lake Center
Mon 02:21:09 PM 40.4336 -116.7153 75° East 474 545 37,000  Level Salt Lake Center
Mon 02:22:10 PM 40.4681 -116.5267 76° East 476 548 37,000  Level Salt Lake Center
Mon 02:23:12 PM 40.4972 -116.3642 77° East 478 550 37,000  Level Salt Lake Center
Mon 02:24:14 PM 40.5308 -116.1783 77° East 471 542 37,000  Level Salt Lake Center
Mon 02:25:16 PM 40.5614 -116.0161 76° East 474 545 37,000  Level Salt Lake Center
Mon 02:26:18 PM 40.5878 -115.8564 78° East 468 539 37,000  Level Salt Lake Center
Mon 02:27:20 PM 40.6197 -115.6689 77° East 469 540 37,000  Level Salt Lake Center
Mon 02:28:22 PM 40.6486 -115.5111 76° East 466 536 37,000  Level Salt Lake Center
Mon 02:29:24 PM 40.6808 -115.3244 77° East 467 537 37,000  Level Salt Lake Center
Mon 02:30:26 PM 40.7083 -115.1633 77° East 470 541 37,000  Level Salt Lake Center
Mon 02:31:27 PM 40.7433 -114.9764 76° East 471 542 37,000  Level Salt Lake Center
Mon 02:32:29 PM 40.7706 -114.8142 77° East 472 543 37,000  Level Salt Lake Center
Mon 02:33:31 PM 40.8017 -114.6258 78° East 470 541 37,000  Level Salt Lake Center
Mon 02:34:33 PM 40.8275 -114.4650 78° East 469 540 37,000  Level Salt Lake Center
Mon 02:35:35 PM 40.8531 -114.3103 78° East 465 535 37,000  Level Salt Lake Center
Mon 02:36:37 PM 40.8858 -114.1111 78° East 465 535 37,000  Level Salt Lake Center
Mon 02:37:39 PM 40.9131 -113.9456 78° East 463 533 37,000  Level Salt Lake Center
Mon 02:38:41 PM 40.9394 -113.7786 78° East 465 535 37,000  Level Salt Lake Center
Mon 02:39:43 PM 40.9653 -113.6122 78° East 464 534 37,000  Level Salt Lake Center
Mon 02:40:44 PM 40.9906 -113.4450 79° East 464 534 37,000  Level Salt Lake Center
Mon 02:41:48 PM 41.0172 -113.2778 78° East 465 535 37,000  Level Salt Lake Center
Mon 02:42:48 PM 41.0431 -113.1114 78° East 463 533 37,000  Level Salt Lake Center
Mon 02:43:50 PM 41.0736 -112.9094 79° East 466 536 37,000  Level Salt Lake Center
Mon 02:44:52 PM 41.0986 -112.7403 79° East 467 537 37,000  Level Salt Lake Center
Mon 02:45:54 PM 41.1244 -112.5706 79° East 469 540 37,000  Level Salt Lake Center
Mon 02:46:55 PM 41.1486 -112.4003 79° East 469 540 37,000  Level Salt Lake Center
Mon 02:47:57 PM 41.1731 -112.2294 79° East 469 540 37,000  Level Salt Lake Center
Mon 02:48:59 PM 41.1981 -112.0583 79° East 470 541 37,000  Level Salt Lake Center
Mon 02:50:00 PM 41.2219 -111.8853 80° East 469 540 37,000  Level Salt Lake Center
Mon 02:51:02 PM 41.2469 -111.7117 79° East 471 542 37,000  Level Salt Lake Center
Mon 02:53:06 PM 41.2997 -111.3300 79° East 475 547 37,000  Level Salt Lake Center
Mon 02:54:08 PM 41.3222 -111.1564 80° East 475 547 37,000  Level Salt Lake Center
Mon 02:55:09 PM 41.3461 -110.9836 80° East 476 548 37,000  Level Salt Lake Center
Mon 02:56:11 PM 41.3681 -110.8158 80° East 476 548 37,000  Level Salt Lake Center
Mon 02:57:13 PM 41.3933 -110.6219 80° East 478 550 37,000  Level Salt Lake Center
Mon 02:58:14 PM 41.4139 -110.4561 81° East 475 547 37,000  Level Salt Lake Center
Mon 02:59:16 PM 41.4392 -110.2594 80° East 482 555 37,000  Level Salt Lake Center
Mon 03:00:18 PM 41.4603 -110.0922 80° East 481 554 37,000  Level Salt Lake Center
Mon 03:01:20 PM 41.4822 -109.9247 80° East 481 554 37,000  Level Salt Lake Center
Mon 03:02:22 PM 41.5053 -109.7300 81° East 477 549 37,000  Level Salt Lake Center
Mon 03:03:23 PM 41.5258 -109.5636 81° East 475 547 37,000  Level Salt Lake Center
Mon 03:04:25 PM 41.5486 -109.3700 81° East 472 543 37,000  Level Salt Lake Center
Mon 03:05:27 PM 41.5681 -109.2019 81° East 471 542 37,000  Level Salt Lake Center
Mon 03:06:28 PM 41.5878 -109.0331 81° East 471 542 37,000  Level Salt Lake Center
Mon 03:07:30 PM 41.6044 -108.8364 83° East 472 543 37,000  Level Salt Lake Center
Mon 03:08:32 PM 41.6172 -108.6692 84° East 473 544 37,000  Level Salt Lake Center
Mon 03:09:33 PM 41.6314 -108.4742 84° East 472 543 37,000  Level Salt Lake Center
Mon 03:10:35 PM 41.6433 -108.3056 85° East 474 545 37,000  Level Salt Lake Center
Mon 03:11:37 PM 41.6564 -108.1364 84° East 477 549 37,000  Level Salt Lake Center
Mon 03:12:31 PM 41.6683 -107.9658 85° East 478 550 37,000  Level Denver Center
Mon 03:13:33 PM 41.6817 -107.7700 85° East 473 544 37,000  Level Denver Center
Mon 03:14:35 PM 41.6931 -107.6014 85° East 477 549 37,000  Level Denver Center
Mon 03:15:37 PM 41.7044 -107.4317 85° East 478 550 37,000  Level Denver Center
Mon 03:16:39 PM 41.7175 -107.2322 85° East 483 556 37,000  Level Denver Center
Mon 03:17:53 PM 41.7286 -107.0606 85° East 486 559 37,000 485 Level Denver Center
Mon 03:18:55 PM 41.7411 -106.8594 85° East 487 560 38,100 968 Climbing Denver Center
Mon 03:19:57 PM 41.7542 -106.6314 86° East 482 555 39,000 435 Climbing Denver Center
Mon 03:20:59 PM 41.7653 -106.4475 85° East 484 557 39,000  Level Denver Center
Mon 03:22:01 PM 41.7753 -106.2744 86° East 487 560 39,000  Level Denver Center
Mon 03:23:03 PM 41.7858 -106.0728 86° East 487 560 39,000  Level Denver Center
Mon 03:24:05 PM 41.7950 -105.9003 86° East 486 559 39,000  Level Denver Center
Mon 03:25:07 PM 41.8042 -105.6989 86° East 486 559 39,000  Level Denver Center
Mon 03:26:09 PM 41.8133 -105.5261 86° East 487 560 39,000  Level Denver Center
Mon 03:27:11 PM 41.8228 -105.3256 86° East 486 559 39,000  Level Denver Center
Mon 03:28:13 PM 41.8297 -105.1514 87° East 490 564 39,000  Level Denver Center
Mon 03:29:15 PM 41.8383 -104.9803 86° East 486 559 39,000  Level Denver Center
Mon 03:30:17 PM 41.8467 -104.7783 87° East 486 559 39,000  Level Denver Center
Mon 03:31:19 PM 41.8536 -104.6064 87° East 485 558 39,000  Level Denver Center
Mon 03:32:21 PM 41.8481 -104.4025 92° East 497 572 39,000  Level Denver Center
Mon 03:33:23 PM 41.8369 -104.2314 95° East 486 559 39,000  Level Denver Center
Mon 03:34:25 PM 41.8275 -104.0308 94° East 486 559 39,000  Level Denver Center
Mon 03:35:26 PM 41.8181 -103.8583 94° East 487 560 39,000  Level Denver Center
Mon 03:36:28 PM 41.8058 -103.6575 95° East 484 557 39,000  Level Denver Center
Mon 03:37:30 PM 41.7964 -103.4842 94° East 487 560 39,000  Level Denver Center
Mon 03:38:32 PM 41.7847 -103.2814 94° East 491 565 39,000  Level Denver Center
Mon 03:39:33 PM 41.7747 -103.1369 95° East 490 564 39,000  Level Denver Center
Mon 03:40:36 PM 41.7594 -102.9042 95° East 493 567 39,000  Level Denver Center
Mon 03:41:37 PM 41.7489 -102.7286 95° East 494 568 39,000  Level Denver Center
Mon 03:42:39 PM 41.7356 -102.5353 95° East 497 572 39,000  Level Denver Center
Mon 03:43:41 PM 41.7242 -102.3583 95° East 499 574 39,000  Level Denver Center
Mon 03:44:43 PM 41.7081 -102.1542 96° East 495 570 39,000  Level Denver Center
Mon 03:45:45 PM 41.6975 -101.9775 95° East 497 572 39,000  Level Denver Center
Mon 03:46:46 PM 41.6806 -101.7725 96° East 495 570 39,000  Level Denver Center
Mon 03:47:48 PM 41.6681 -101.5969 95° East 494 568 39,000  Level Denver Center
Mon 03:48:50 PM 41.6525 -101.3908 96° East 497 572 39,000  Level Denver Center
Mon 03:49:52 PM 41.6389 -101.2156 96° East 496 571 39,000  Level Denver Center
Mon 03:50:53 PM 41.6278 -101.0689 96° East 495 570 39,000  Level Denver Center
Mon 03:51:55 PM 41.6083 -100.8397 96° East 486 559 39,000  Level Denver Center
Mon 03:52:57 PM 41.5939 -100.6661 96° East 489 563 39,000  Level Denver Center
Mon 03:53:58 PM 41.5761 -100.4622 97° East 493 567 39,000  Level Denver Center
Mon 03:55:00 PM 41.5614 -100.2872 96° East 493 567 39,000  Level Denver Center
Mon 03:56:02 PM 41.5464 -100.1128 96° East 493 567 39,000  Level Denver Center
Mon 03:57:03 PM 41.5311 -99.9358 97° East 497 572 39,000  Level Denver Center
Mon 03:58:05 PM 41.5122 -99.7408 97° East 501 577 39,000  Level Denver Center
Mon 03:59:07 PM 41.4919 -99.5158 97° East 506 582 39,000  Level Denver Center
Mon 04:00:09 PM 41.4847 -99.3244 93° East 515 593 39,000  Level Denver Center
Mon 04:01:10 PM 41.4856 -99.1311 90° East 518 596 39,000  Level Denver Center
Mon 04:02:12 PM 41.4864 -98.9383 90° East 517 595 39,000  Level Denver Center
Mon 04:03:08 PM 41.4872 -98.7756 90° East 516 594 39,000  Level Minneapolis Center
Mon 04:04:10 PM 41.4897 -98.5839 89° East 518 596 39,000  Level Minneapolis Center
Mon 04:05:12 PM 41.4889 -98.3556 90° East 520 598 39,000  Level Minneapolis Center
Mon 04:06:13 PM 41.4889 -98.1642 90° East 517 595 39,000  Level Minneapolis Center
Mon 04:07:27 PM 41.4878 -97.9722 90° East 515 593 39,000  Level Minneapolis Center
Mon 04:08:29 PM 41.4869 -97.7433 90° East 514 592 39,000  Level Minneapolis Center
Mon 04:09:31 PM 41.4856 -97.5519 90° East 516 594 39,000  Level Minneapolis Center
Mon 04:10:32 PM 41.4847 -97.3606 90° East 516 594 39,000  Level Minneapolis Center
Mon 04:11:34 PM 41.4833 -97.1703 90° East 515 593 39,000  Level Minneapolis Center
Mon 04:12:36 PM 41.4808 -96.9794 91° East 515 593 39,000  Level Minneapolis Center
Mon 04:13:38 PM 41.4786 -96.7506 91° East 515 593 39,000  Level Minneapolis Center
Mon 04:14:39 PM 41.4764 -96.5589 91° East 516 594 39,000  Level Minneapolis Center
Mon 04:15:41 PM 41.4731 -96.3664 91° East 517 595 39,000  Level Minneapolis Center
Mon 04:16:43 PM 41.4689 -96.1725 92° East 520 598 39,000  Level Minneapolis Center
Mon 04:17:44 PM 41.4656 -95.9831 91° East 514 592 39,000  Level Minneapolis Center
Mon 04:18:46 PM 41.4608 -95.7925 92° East 515 593 39,000  Level Minneapolis Center
Mon 04:19:48 PM 41.4564 -95.5906 92° East 510 587 39,000  Level Minneapolis Center
Mon 04:20:50 PM 41.4525 -95.4022 92° East 508 585 39,000  Level Minneapolis Center
Mon 04:21:52 PM 41.4478 -95.2136 92° East 507 583 39,000  Level Minneapolis Center
Mon 04:22:54 PM 41.4428 -95.0261 92° East 507 583 39,000  Level Minneapolis Center
Mon 04:23:56 PM 41.4364 -94.8356 92° East 512 589 39,000  Level Minneapolis Center
Mon 04:24:57 PM 41.4300 -94.6092 92° East 509 586 39,000  Level Minneapolis Center
Mon 04:25:59 PM 41.4239 -94.4208 92° East 508 585 39,000  Level Minneapolis Center
Mon 04:27:01 PM 41.4189 -94.2342 92° East 506 582 39,000  Level Minneapolis Center
Mon 04:28:03 PM 41.4094 -94.0464 94° East 507 583 39,000  Level Minneapolis Center
Mon 04:29:05 PM 41.4019 -93.8603 93° East 507 583 39,000  Level Minneapolis Center
Mon 04:30:07 PM 41.3947 -93.6736 93° East 507 583 39,000  Level Minneapolis Center
Mon 04:31:08 PM 41.3889 -93.5228 93° East 508 585 39,000 -532 Level Minneapolis Center
Mon 04:32:11 PM 41.3783 -93.2586 93° East 511 588 37,900 -968 Descending Minneapolis Center
Mon 04:33:12 PM 41.3700 -93.0717 93° East 508 585 37,000 -927 Descending Minneapolis Center
Mon 04:34:14 PM 41.3617 -92.8767 93° East 520 598 36,000 -919 Descending Minneapolis Center
Mon 04:35:16 PM 41.3517 -92.6789 94° East 532 612 35,100 -919 Descending Minneapolis Center
Mon 04:36:18 PM 41.3419 -92.4858 94° East 530 610 34,100 -1,016 Descending Minneapolis Center
Mon 04:37:20 PM 41.3331 -92.2992 94° East 519 597 33,000 -1,033 Descending Minneapolis Center
Mon 04:38:20 PM 41.3233 -92.1108 94° East 504 580 32,000 -984 Descending Chicago Center
Mon 04:39:22 PM 41.3100 -91.8928 95° East 500 575 31,000 -484 Descending Chicago Center
Mon 04:40:24 PM 41.3017 -91.7125 93° East 495 570 31,000  Level Chicago Center
Mon 04:41:26 PM 41.2908 -91.5347 95° East 492 566 31,000  Level Chicago Center
Mon 04:42:28 PM 41.2797 -91.3544 95° East 493 567 31,000 -581 Level Chicago Center
Mon 04:43:30 PM 41.2675 -91.1558 95° East 489 563 29,800 -1,887 Descending Chicago Center
Mon 04:44:32 PM 41.2561 -90.9756 95° East 490 564 27,100 -2,129 Descending Chicago Center
Mon 04:45:34 PM 41.2453 -90.7992 95° East 481 554 25,400 -1,355 Descending Chicago Center
Mon 04:46:36 PM 41.2339 -90.6353 95° East 449 517 24,300 -1,016 Descending Chicago Center
Mon 04:47:38 PM 41.2239 -90.4764 95° East 433 498 23,300 -629 Descending Chicago Center
Mon 04:48:40 PM 41.2108 -90.2883 95° East 426 490 23,000 -288 Descending Chicago Center
Mon 04:49:43 PM 41.1986 -90.1297 96° East 429 494 22,700 -1,248 Descending Chicago Center
Mon 04:50:45 PM 41.1869 -89.9558 95° East 461 531 20,400 -2,323 Descending Chicago Center
Mon 04:51:47 PM 41.1756 -89.7886 95° East 455 524 17,900 -2,371 Descending Chicago Center
Mon 04:52:49 PM 41.1636 -89.6278 96° East 439 505 15,500 -1,694 Descending Chicago Center
Mon 04:53:51 PM 41.1683 -89.4711 88° East 430 495 14,400 -1,016 Descending Chicago Center
Mon 04:54:53 PM 41.1789 -89.3150 85° East 425 489 13,400 -1,065 Descending Chicago Center
Mon 04:55:55 PM 41.1917 -89.1367 85° East 414 476 12,200 -1,016 Descending Chicago Center
Mon 04:56:57 PM 41.2453 -89.0103 61° Northeast 403 464 11,300 -1,016 Descending Chicago Center
Mon 04:57:59 PM 41.2992 -88.8889 59° Northeast 383 441 10,100 -774 Descending Chicago Center
Mon 04:59:01 PM 41.3450 -88.7822 60° Northeast 337 388 9,700 -871 Descending Chicago Center
Mon 05:00:03 PM 41.3878 -88.6839 60° Northeast 312 359 8,300 -1,200 Descending Chicago Center
Mon 05:01:06 PM 41.4306 -88.5644 64° Northeast 300 345 7,200 -1,056 Descending Chicago Center
Mon 05:02:08 PM 41.4572 -88.4608 71° East 297 342 6,100 -581 Descending Chicago Center
Mon 05:03:10 PM 41.4853 -88.3583 70° East 296 341 6,000 -48 Descending Chicago Center
Mon 05:04:12 PM 41.5133 -88.2564 70° East 293 337 6,000  Level Chicago Center
Mon 05:05:14 PM 41.5419 -88.1528 70° East 293 337 6,000  Level Chicago Center
Mon 05:06:16 PM 41.5708 -88.0475 70° East 296 341 6,000 -242 Level Chicago Center
Mon 05:07:18 PM 41.5731 -87.9353 88° East 300 345 5,500 -968 Descending Chicago Center
Mon 05:08:20 PM 41.5778 -87.8000 87° East 302 348 4,000 -1,210 Descending Chicago Center
Mon 05:09:22 PM 41.6108 -87.7125 63° Northeast 286 329 3,000 -621 Descending Chicago Center
Mon 05:10:16 PM 41.6500 -87.6667 41° Northeast 231 266 2,800 -278 Descending Chicago TRACON
Mon 05:11:10 PM 41.7000 -87.6500 14° North 189 217 2,500 -474 Descending Chicago TRACON
Mon 05:12:10 PM 41.7333 -87.6833 323° Northwest 142 163 1,900 -700 Descending Chicago TRACON
Mon 05:13:10 PM 41.7667 -87.7167 323° Northwest 135 155 1,100 -800 Descending Chicago TRACON

Login

Don't have an account? Register now (free) for customized features, flight alerts, and more!